createdAt,value
2022-11-18T00:01:25.825Z,2.67
2022-11-18T00:03:54.283Z,2.67
2022-11-18T00:06:24.295Z,2.62
2022-11-18T00:08:52.274Z,2.69
2022-11-18T00:11:36.055Z,2.70
2022-11-18T00:14:23.001Z,2.60
2022-11-18T00:16:53.948Z,2.54
2022-11-18T00:19:23.059Z,2.47
2022-11-18T00:21:51.063Z,2.50
2022-11-18T00:24:19.538Z,2.42
2022-11-18T00:26:47.736Z,2.54
2022-11-18T00:29:17.648Z,2.55
2022-11-18T00:31:46.061Z,2.60
2022-11-18T00:34:15.397Z,2.61
2022-11-18T00:36:44.621Z,2.69
2022-11-18T00:39:12.897Z,2.62
2022-11-18T00:41:59.167Z,2.33
2022-11-18T00:44:28.559Z,2.18
2022-11-18T00:46:56.660Z,2.08
2022-11-18T00:49:26.212Z,2.10
2022-11-18T00:51:54.102Z,2.00
2022-11-18T00:54:21.941Z,1.94
2022-11-18T00:56:50.016Z,2.12
2022-11-18T00:59:18.234Z,2.01
2022-11-18T01:01:49.116Z,1.98
2022-11-18T01:04:17.324Z,2.01
2022-11-18T01:06:45.266Z,2.04
2022-11-18T01:09:13.051Z,2.04
2022-11-18T01:11:58.366Z,2.12
2022-11-18T01:14:26.419Z,1.96
2022-11-18T01:16:57.558Z,2.03
2022-11-18T01:19:26.094Z,2.20
2022-11-18T01:21:54.189Z,2.13
2022-11-18T01:24:21.998Z,1.90
2022-11-18T01:26:50.044Z,1.87
2022-11-18T01:29:18.674Z,1.75
2022-11-18T01:32:09.325Z,1.70
2022-11-18T01:34:36.056Z,1.87
2022-11-18T01:37:03.943Z,1.81
2022-11-18T01:39:32.284Z,1.95
2022-11-18T01:42:00.352Z,1.98
2022-11-18T01:45:05.094Z,2.08
2022-11-18T01:47:37.273Z,2.03
2022-11-18T01:50:07.784Z,1.98
2022-11-18T01:52:36.612Z,1.87
2022-11-18T01:55:09.934Z,1.98
2022-11-18T01:57:37.903Z,2.14
2022-11-18T02:00:09.114Z,1.93
2022-11-18T02:02:38.620Z,1.92
2022-11-18T02:05:11.709Z,1.98
2022-11-18T02:07:43.333Z,1.98
2022-11-18T02:10:19.612Z,2.08
2022-11-18T02:12:47.639Z,1.88
2022-11-18T02:15:15.665Z,1.60
2022-11-18T02:17:53.792Z,1.72
2022-11-18T02:20:32.172Z,1.63
2022-11-18T02:23:41.482Z,1.79
2022-11-18T02:26:46.261Z,1.71
2022-11-18T02:29:20.243Z,1.67
2022-11-18T02:31:54.945Z,1.88
2022-11-18T02:34:34.588Z,1.71
2022-11-18T02:37:07.661Z,1.54
2022-11-18T02:39:39.313Z,1.62
2022-11-18T02:42:12.605Z,1.74
2022-11-18T02:44:47.005Z,1.79
2022-11-18T02:47:17.818Z,1.75
2022-11-18T02:49:49.474Z,1.80
2022-11-18T02:52:20.322Z,1.91
2022-11-18T02:54:50.792Z,1.76
2022-11-18T02:57:20.790Z,1.80
2022-11-18T02:59:50.345Z,1.88
2022-11-18T03:02:19.929Z,1.77
2022-11-18T03:04:49.511Z,1.47
2022-11-18T03:07:22.888Z,1.69
2022-11-18T03:09:53.182Z,1.44
2022-11-18T03:12:30.900Z,1.56
2022-11-18T03:15:08.730Z,1.71
2022-11-18T03:17:47.690Z,1.63
2022-11-18T03:20:22.081Z,1.45
2022-11-18T03:22:56.262Z,1.39
2022-11-18T03:25:32.593Z,1.32
2022-11-18T03:28:08.514Z,1.35
2022-11-18T03:30:41.117Z,1.34
2022-11-18T03:33:13.246Z,1.19
2022-11-18T03:35:47.386Z,1.15
2022-11-18T03:38:19.756Z,1.32
2022-11-18T03:40:52.402Z,1.21
2022-11-18T03:43:24.423Z,1.24
2022-11-18T03:45:59.135Z,1.30
2022-11-18T03:48:30.338Z,1.13
2022-11-18T03:51:02.502Z,1.15
2022-11-18T03:53:35.202Z,1.06
2022-11-18T03:56:10.530Z,0.99
2022-11-18T03:58:48.950Z,1.09
2022-11-18T04:01:22.787Z,1.11
2022-11-18T04:03:50.845Z,0.94
2022-11-18T04:06:25.642Z,0.74
2022-11-18T04:08:59.695Z,0.82
2022-11-18T04:11:51.126Z,0.75
2022-11-18T04:14:23.480Z,0.74
2022-11-18T04:16:54.323Z,0.69
2022-11-18T04:19:22.848Z,0.80
2022-11-18T04:21:53.798Z,0.94
2022-11-18T04:24:25.149Z,0.81
2022-11-18T04:26:53.831Z,0.83
2022-11-18T04:29:22.009Z,0.90
2022-11-18T04:31:50.997Z,0.92
2022-11-18T04:34:20.798Z,0.90
2022-11-18T04:36:48.810Z,1.01
2022-11-18T04:39:18.298Z,0.84
2022-11-18T04:41:59.072Z,0.72
2022-11-18T04:44:28.186Z,0.85
2022-11-18T04:46:57.527Z,0.72
2022-11-18T04:49:28.097Z,0.69
2022-11-18T04:51:56.855Z,0.69
2022-11-18T04:54:26.082Z,0.68
2022-11-18T04:56:54.398Z,0.85
2022-11-18T04:59:24.242Z,0.80
2022-11-18T05:01:53.298Z,0.79
2022-11-18T05:04:22.944Z,0.90
2022-11-18T05:06:53.132Z,0.97
2022-11-18T05:09:21.885Z,0.80
2022-11-18T05:12:08.616Z,0.88
2022-11-18T05:14:38.637Z,0.75
2022-11-18T05:17:10.736Z,0.94
2022-11-18T05:19:42.382Z,0.75
2022-11-18T05:22:14.266Z,0.80
2022-11-18T05:24:42.056Z,0.75
2022-11-18T05:27:09.882Z,0.68
2022-11-18T05:29:37.888Z,0.63
2022-11-18T05:32:06.494Z,0.68
2022-11-18T05:34:34.420Z,0.75
2022-11-18T05:37:03.603Z,0.86
2022-11-18T05:39:32.998Z,0.53
2022-11-18T05:42:18.572Z,0.54
2022-11-18T05:44:46.734Z,0.57
2022-11-18T05:47:15.035Z,0.67
2022-11-18T05:49:42.782Z,0.75
2022-11-18T05:52:10.773Z,0.75
2022-11-18T05:54:45.708Z,0.45
2022-11-18T05:57:13.615Z,0.34
2022-11-18T05:59:41.397Z,0.48
2022-11-18T06:02:14.759Z,0.57
2022-11-18T06:04:46.267Z,0.49
2022-11-18T06:07:20.230Z,0.40
2022-11-18T06:09:52.914Z,0.41
2022-11-18T06:12:24.307Z,0.33
2022-11-18T06:14:56.079Z,0.40
2022-11-18T06:17:27.753Z,0.51
2022-11-18T06:19:56.061Z,0.52
2022-11-18T06:22:24.033Z,0.65
2022-11-18T06:24:53.358Z,0.53
2022-11-18T06:27:21.601Z,0.46
2022-11-18T06:29:49.479Z,0.62
2022-11-18T06:32:17.441Z,0.69
2022-11-18T06:34:45.212Z,0.67
2022-11-18T06:37:17.243Z,0.63
2022-11-18T06:39:45.060Z,0.62
2022-11-18T06:42:35.401Z,0.49
2022-11-18T06:45:02.549Z,0.46
2022-11-18T06:47:30.559Z,0.47
2022-11-18T06:49:58.463Z,0.34
2022-11-18T06:52:26.321Z,0.26
2022-11-18T06:54:54.415Z,0.46
2022-11-18T06:57:23.894Z,0.34
2022-11-18T06:59:51.740Z,0.22
2022-11-18T07:02:19.664Z,0.27
2022-11-18T07:04:47.647Z,0.38
2022-11-18T07:07:15.779Z,0.13
2022-11-18T07:09:44.611Z,0.27
2022-11-18T07:12:13.021Z,0.41
2022-11-18T07:14:42.164Z,0.33
2022-11-18T07:17:10.023Z,0.10
2022-11-18T07:19:37.827Z,0.34
2022-11-18T07:22:05.865Z,0.28
2022-11-18T07:24:33.783Z,0.50
2022-11-18T07:27:01.730Z,0.37
2022-11-18T07:29:29.501Z,0.60
2022-11-18T07:31:58.931Z,0.62
2022-11-18T07:34:26.838Z,0.49
2022-11-18T07:36:54.997Z,0.72
2022-11-18T07:39:23.063Z,0.45
2022-11-18T07:41:51.022Z,0.26
2022-11-18T07:44:18.893Z,0.39
2022-11-18T07:46:46.875Z,0.32
2022-11-18T07:49:16.753Z,0.60
2022-11-18T07:51:45.050Z,0.43
2022-11-18T07:54:16.530Z,0.52
2022-11-18T07:56:44.557Z,0.63
2022-11-18T07:59:12.613Z,0.68
2022-11-18T08:01:40.579Z,0.65
2022-11-18T08:04:11.019Z,0.32
2022-11-18T08:06:41.365Z,0.41
2022-11-18T08:09:09.979Z,0.46
2022-11-18T08:11:38.366Z,0.62
2022-11-18T08:14:06.180Z,0.52
2022-11-18T08:16:34.316Z,0.41
2022-11-18T08:19:02.360Z,0.53
2022-11-18T08:21:30.629Z,0.61
2022-11-18T08:23:59.921Z,0.71
2022-11-18T08:26:29.486Z,0.72
2022-11-18T08:28:58.909Z,0.46
2022-11-18T08:31:28.239Z,0.38
2022-11-18T08:34:00.442Z,0.30
2022-11-18T08:36:31.028Z,0.30
2022-11-18T08:39:03.308Z,0.25
2022-11-18T08:41:34.691Z,0.33
2022-11-18T08:44:03.228Z,0.22
2022-11-18T08:46:31.222Z,0.36
2022-11-18T08:49:01.933Z,0.34
2022-11-18T08:51:30.139Z,0.27
2022-11-18T08:53:58.029Z,0.06
2022-11-18T08:56:27.355Z,0.04
2022-11-18T08:58:55.630Z,0.32
2022-11-18T09:01:24.068Z,0.46
2022-11-18T09:03:52.015Z,0.60
2022-11-18T09:06:22.755Z,0.13
2022-11-18T09:08:50.583Z,0.38
2022-11-18T09:11:20.146Z,0.25
2022-11-18T09:14:38.986Z,0.34
2022-11-18T09:16:40.863Z,0.29
2022-11-18T09:19:32.145Z,0.20
2022-11-18T09:21:56.554Z,0.31
2022-11-18T09:24:24.553Z,0.41
2022-11-18T09:26:53.576Z,0.19
2022-11-18T09:29:26.136Z,0.26
2022-11-18T09:31:54.324Z,0.15
2022-11-18T09:34:22.574Z,0.41
2022-11-18T09:36:50.488Z,0.15
2022-11-18T09:39:18.770Z,0.21
2022-11-18T09:41:48.594Z,0.44
2022-11-18T09:44:35.127Z,0.51
2022-11-18T09:47:15.463Z,0.69
2022-11-18T09:49:45.806Z,0.90
2022-11-18T09:52:19.607Z,0.75
2022-11-18T09:54:48.220Z,0.58
2022-11-18T09:57:17.972Z,0.60
2022-11-18T09:59:48.123Z,0.43
2022-11-18T10:02:30.310Z,-0.06
2022-11-18T10:05:02.758Z,-0.04
2022-11-18T10:07:40.592Z,-0.07
2022-11-18T10:10:16.246Z,0.23
2022-11-18T10:12:50.710Z,0.29
2022-11-18T10:15:25.274Z,0.59
2022-11-18T10:18:02.427Z,0.16
2022-11-18T10:20:42.225Z,0.19
2022-11-18T10:23:16.717Z,-0.05
2022-11-18T10:25:44.830Z,0.19
2022-11-18T10:28:19.038Z,0.19
2022-11-18T10:30:48.193Z,0.39
2022-11-18T10:33:26.744Z,0.28
2022-11-18T10:36:12.874Z,0.23
2022-11-18T10:38:43.241Z,0.22
2022-11-18T10:41:16.566Z,0.62
2022-11-18T10:43:50.543Z,0.66
2022-11-18T10:46:26.441Z,0.68
2022-11-18T10:49:16.462Z,0.80
2022-11-18T10:51:49.907Z,0.75
2022-11-18T10:54:21.068Z,0.43
2022-11-18T10:56:57.570Z,0.46
2022-11-18T10:59:32.587Z,0.32
2022-11-18T11:02:13.978Z,0.57
2022-11-18T11:04:41.952Z,0.59
2022-11-18T11:07:18.133Z,0.59
2022-11-18T11:09:46.380Z,0.65
2022-11-18T11:12:16.648Z,0.37
2022-11-18T11:14:52.281Z,0.25
2022-11-18T11:17:27.363Z,0.19
2022-11-18T11:20:04.786Z,0.50
2022-11-18T11:22:32.856Z,0.45
2022-11-18T11:25:00.768Z,0.48
2022-11-18T11:30:38.643Z,0.68
2022-11-18T11:33:23.833Z,0.51
2022-11-18T11:36:11.075Z,0.65
2022-11-18T11:38:58.666Z,0.35
2022-11-18T11:41:32.184Z,0.48
2022-11-18T11:44:13.909Z,0.57
2022-11-18T11:47:12.356Z,0.67
2022-11-18T11:49:53.632Z,0.67
2022-11-18T11:52:32.976Z,0.74
2022-11-18T11:55:15.965Z,0.78
2022-11-18T11:57:59.239Z,0.91
2022-11-18T12:00:28.801Z,0.77
2022-11-18T12:03:13.281Z,0.80
2022-11-18T12:05:43.263Z,0.79
2022-11-18T12:08:15.338Z,0.89
2022-11-18T12:10:47.956Z,0.94
2022-11-18T12:13:37.438Z,0.77
2022-11-18T12:16:22.364Z,0.82
2022-11-18T12:18:56.048Z,0.71
2022-11-18T12:22:03.981Z,0.81
2022-11-18T12:24:36.316Z,0.97
2022-11-18T12:27:07.791Z,0.99
2022-11-18T12:29:59.045Z,0.86
2022-11-18T12:32:34.737Z,0.86
2022-11-18T12:35:05.410Z,0.91
2022-11-18T12:37:45.969Z,1.16
2022-11-18T12:40:42.466Z,1.33
2022-11-18T12:44:04.438Z,1.34
2022-11-18T12:46:54.323Z,0.99
2022-11-18T12:50:11.337Z,0.61
2022-11-18T12:52:54.757Z,0.55
2022-11-18T12:55:27.542Z,0.35
2022-11-18T12:57:58.493Z,0.44
2022-11-18T13:00:33.283Z,0.39
2022-11-18T13:03:02.723Z,0.26
2022-11-18T13:05:34.024Z,0.15
2022-11-18T13:08:15.712Z,0.20
2022-11-18T13:10:53.190Z,0.17
2022-11-18T13:13:28.296Z,0.23
2022-11-18T13:16:17.136Z,0.39
2022-11-18T13:18:52.088Z,0.23
2022-11-18T13:21:42.935Z,0.35
2022-11-18T13:24:14.786Z,0.40
2022-11-18T13:26:44.135Z,0.46
2022-11-18T13:29:37.696Z,0.47
2022-11-18T13:32:18.673Z,0.39
2022-11-18T13:34:48.718Z,0.44
2022-11-18T13:37:21.052Z,0.59
2022-11-18T13:39:50.711Z,0.69
2022-11-18T13:42:22.183Z,0.70
2022-11-18T13:44:55.161Z,0.56
2022-11-18T13:47:30.056Z,0.55
2022-11-18T13:50:04.654Z,0.58
2022-11-18T13:52:37.031Z,0.62
2022-11-18T13:55:10.442Z,0.69
2022-11-18T13:57:41.517Z,0.55
2022-11-18T14:00:23.219Z,0.52
2022-11-18T14:02:57.089Z,0.55
2022-11-18T14:05:25.759Z,0.63
2022-11-18T14:08:07.214Z,0.62
2022-11-18T14:10:43.646Z,0.47
2022-11-18T14:13:20.125Z,0.63
2022-11-18T14:15:48.266Z,0.54
2022-11-18T14:18:24.295Z,0.37
2022-11-18T14:20:53.951Z,0.36
2022-11-18T14:23:28.389Z,0.40
2022-11-18T14:25:58.410Z,0.32
2022-11-18T14:28:28.502Z,0.29
2022-11-18T14:30:59.318Z,0.25
2022-11-18T14:33:28.707Z,0.23
2022-11-18T14:35:59.497Z,0.26
2022-11-18T14:38:43.536Z,0.19
2022-11-18T14:41:44.310Z,0.19
2022-11-18T14:44:13.844Z,0.12
2022-11-18T14:46:47.582Z,0.22
2022-11-18T14:49:18.933Z,0.22
2022-11-18T14:51:47.030Z,0.30
2022-11-18T14:57:07.156Z,0.08
2022-11-18T14:59:34.995Z,0.14
2022-11-18T15:00:27.206Z,0.23
2022-11-18T15:02:02.914Z,0.16
2022-11-18T15:04:30.825Z,0.18
2022-11-18T15:06:58.749Z,0.20
2022-11-18T15:09:26.810Z,0.19
2022-11-18T15:11:54.773Z,0.04
2022-11-18T15:14:23.940Z,-0.09
2022-11-18T15:16:51.765Z,-0.26
2022-11-18T15:19:19.742Z,-0.19
2022-11-18T15:21:47.531Z,-0.05
2022-11-18T15:24:15.793Z,-0.17
2022-11-18T15:26:45.972Z,-0.14
2022-11-18T15:29:18.476Z,-0.20
2022-11-18T15:31:48.442Z,-0.25
2022-11-18T15:34:18.151Z,-0.25
2022-11-18T15:36:46.503Z,-0.25
2022-11-18T15:39:14.511Z,-0.30
2022-11-18T15:41:43.826Z,-0.38
2022-11-18T15:44:12.742Z,-0.41
2022-11-18T15:46:41.454Z,-0.35
2022-11-18T15:49:14.635Z,-0.36
2022-11-18T15:51:42.662Z,-0.44
2022-11-18T15:54:10.552Z,-0.50
2022-11-18T15:56:39.738Z,-0.42
2022-11-18T15:59:09.923Z,-0.49
2022-11-18T16:01:40.338Z,-0.44
2022-11-18T16:04:11.099Z,-0.43
2022-11-18T16:06:39.643Z,-0.49
2022-11-18T16:09:07.833Z,-0.57
2022-11-18T16:11:53.155Z,-0.53
2022-11-18T16:14:22.928Z,-0.52
2022-11-18T16:16:54.019Z,-0.53
2022-11-18T16:19:24.931Z,-0.49
2022-11-18T16:21:54.731Z,-0.67
2022-11-18T16:24:24.722Z,-0.62
2022-11-18T16:26:52.949Z,-0.62
2022-11-18T16:29:21.320Z,-0.64
2022-11-18T16:31:52.266Z,-0.59
2022-11-18T16:34:22.067Z,-0.55
2022-11-18T16:36:53.663Z,-0.56
2022-11-18T16:39:25.040Z,-0.53
2022-11-18T16:41:54.744Z,-0.58
2022-11-18T16:44:23.218Z,-0.61
2022-11-18T16:46:52.630Z,-0.61
2022-11-18T16:49:22.485Z,-0.58
2022-11-18T16:51:54.363Z,-0.64
2022-11-18T16:54:24.270Z,-0.65
2022-11-18T16:56:53.138Z,-0.59
2022-11-18T16:59:22.492Z,-0.66
2022-11-18T17:01:51.432Z,-0.67
2022-11-18T17:04:19.940Z,-0.62
2022-11-18T17:06:48.449Z,-0.79
2022-11-18T17:09:19.656Z,-0.78
2022-11-18T17:11:48.154Z,-0.73
2022-11-18T17:14:16.535Z,-0.75
2022-11-18T17:16:44.614Z,-0.77
2022-11-18T17:19:15.784Z,-0.67
2022-11-18T17:21:44.340Z,-0.77
2022-11-18T17:24:21.029Z,-0.61
2022-11-18T17:26:49.177Z,-0.64
2022-11-18T17:29:17.496Z,-0.62
2022-11-18T17:31:45.588Z,-0.70
2022-11-18T17:34:14.703Z,-0.65
2022-11-18T17:36:43.489Z,-0.70
2022-11-18T17:39:13.285Z,-0.68
2022-11-18T17:42:00.365Z,-0.60
2022-11-18T17:44:29.099Z,-0.66
2022-11-18T17:46:57.113Z,-0.68
2022-11-18T17:49:25.834Z,-0.75
2022-11-18T17:51:53.759Z,-0.70
2022-11-18T17:54:22.423Z,-0.71
2022-11-18T17:56:52.968Z,-0.73
2022-11-18T17:59:22.893Z,-0.72
2022-11-18T18:01:57.301Z,-0.83
2022-11-18T18:04:26.961Z,-0.82
2022-11-18T18:06:55.269Z,-0.82
2022-11-18T18:09:30.152Z,-0.89
2022-11-18T18:12:20.833Z,-0.92
2022-11-18T18:14:54.765Z,-0.91
2022-11-18T18:17:22.629Z,-0.83
2022-11-18T18:19:50.420Z,-0.90
2022-11-18T18:22:18.271Z,-0.92
2022-11-18T18:24:46.193Z,-0.80
2022-11-18T18:27:15.373Z,-0.86
2022-11-18T18:29:43.167Z,-0.92
2022-11-18T18:32:11.028Z,-0.89
2022-11-18T18:34:38.811Z,-0.96
2022-11-18T18:37:06.679Z,-0.96
2022-11-18T18:39:34.417Z,-0.95
2022-11-18T18:42:03.565Z,-0.92
2022-11-18T18:44:46.745Z,-0.94
2022-11-18T18:47:14.844Z,-0.92
2022-11-18T18:49:42.760Z,-1.07
2022-11-18T18:52:10.681Z,-0.94
2022-11-18T18:54:38.567Z,-0.96
2022-11-18T18:57:06.522Z,-1.04
2022-11-18T18:59:36.555Z,-0.95
2022-11-18T19:02:05.047Z,-0.95
2022-11-18T19:04:32.954Z,-0.97
2022-11-18T19:07:00.998Z,-0.92
2022-11-18T19:09:29.457Z,-0.96
2022-11-18T19:12:14.831Z,-0.86
2022-11-18T19:14:44.313Z,-0.94
2022-11-18T19:17:48.073Z,-1.04
2022-11-18T19:20:36.689Z,-1.11
2022-11-18T19:23:10.092Z,-1.11
2022-11-18T19:25:38.777Z,-1.09
2022-11-18T19:28:06.589Z,-1.10
2022-11-18T19:30:35.945Z,-1.10
2022-11-18T19:33:05.525Z,-1.21
2022-11-18T19:35:33.278Z,-1.14
2022-11-18T19:38:01.063Z,-1.13
2022-11-18T19:40:28.925Z,-1.06
2022-11-18T19:42:57.995Z,-1.08
2022-11-18T19:45:25.948Z,-1.09
2022-11-18T19:47:55.290Z,-1.09
2022-11-18T19:50:23.098Z,-1.11
2022-11-18T19:52:51.026Z,-1.14
2022-11-18T19:55:18.858Z,-1.15
2022-11-18T19:57:46.646Z,-1.09
2022-11-18T20:00:15.639Z,-1.06
2022-11-18T20:02:43.504Z,-1.08
2022-11-18T20:05:30.121Z,-1.13
2022-11-18T20:07:57.990Z,-1.10
2022-11-18T20:10:25.841Z,-1.07
2022-11-18T20:12:53.751Z,-1.10
2022-11-18T20:15:21.525Z,-1.11
2022-11-18T20:17:49.378Z,-1.16
2022-11-18T20:20:18.738Z,-1.23
2022-11-18T20:22:46.761Z,-1.31
2022-11-18T20:25:15.527Z,-1.34
2022-11-18T20:27:43.486Z,-1.28
2022-11-18T20:30:12.241Z,-1.33
2022-11-18T20:32:40.141Z,-1.27
2022-11-18T20:35:08.370Z,-1.22
2022-11-18T20:37:37.730Z,-1.23
2022-11-18T20:40:06.621Z,-1.27
2022-11-18T20:42:52.918Z,-1.19
2022-11-18T20:45:21.076Z,-1.28
2022-11-18T20:48:01.943Z,-1.28
2022-11-18T20:50:29.917Z,-1.24
2022-11-18T20:52:59.190Z,-1.27
2022-11-18T20:55:29.178Z,-1.27
2022-11-18T20:57:56.999Z,-1.30
2022-11-18T21:00:24.880Z,-1.38
2022-11-18T21:02:52.711Z,-1.36
2022-11-18T21:05:20.509Z,-1.32
2022-11-18T21:07:50.112Z,-1.24
2022-11-18T21:10:19.473Z,-1.33
2022-11-18T21:13:01.287Z,-1.40
2022-11-18T21:15:29.144Z,-1.43
2022-11-18T21:17:57.325Z,-1.53
2022-11-18T21:20:43.059Z,-1.52
2022-11-18T21:23:12.142Z,-1.46
2022-11-18T21:25:41.396Z,-1.44
2022-11-18T21:28:09.393Z,-1.44
2022-11-18T21:30:38.123Z,-1.41
2022-11-18T21:33:06.270Z,-1.44
2022-11-18T21:35:34.864Z,-1.44
2022-11-18T21:38:04.260Z,-1.55
2022-11-18T21:40:32.260Z,-1.60
2022-11-18T21:43:01.495Z,-1.57
2022-11-18T21:45:29.365Z,-1.56
2022-11-18T21:47:57.264Z,-1.63
2022-11-18T21:50:25.132Z,-1.60
2022-11-18T21:52:53.094Z,-1.61
2022-11-18T21:55:21.535Z,-1.65
2022-11-18T21:57:49.542Z,-1.64
2022-11-18T22:00:19.523Z,-1.66
2022-11-18T22:02:47.485Z,-1.64
2022-11-18T22:05:16.435Z,-1.64
2022-11-18T22:07:44.474Z,-1.59
2022-11-18T22:10:12.366Z,-1.52
2022-11-18T22:12:44.149Z,-1.56
2022-11-18T22:15:12.410Z,-1.55
2022-11-18T22:17:41.726Z,-1.61
2022-11-18T22:20:12.460Z,-1.65
2022-11-18T22:22:40.401Z,-1.60
2022-11-18T22:25:08.766Z,-1.83
2022-11-18T22:27:36.920Z,-1.78
2022-11-18T22:30:05.570Z,-1.80
2022-11-18T22:32:34.617Z,-1.75
2022-11-18T22:35:03.892Z,-1.86
2022-11-18T22:37:31.692Z,-1.78
2022-11-18T22:39:59.449Z,-1.77
2022-11-18T22:42:44.942Z,-1.75
2022-11-18T22:45:12.708Z,-1.75
2022-11-18T22:47:40.525Z,-1.75
2022-11-18T22:50:10.799Z,-1.80
2022-11-18T22:52:38.933Z,-1.86
2022-11-18T22:55:07.129Z,-1.93
2022-11-18T22:57:35.755Z,-1.94
2022-11-18T23:00:03.939Z,-2.00
2022-11-18T23:02:31.709Z,-1.92
2022-11-18T23:04:59.554Z,-1.97
2022-11-18T23:07:28.761Z,-1.95
2022-11-18T23:09:56.629Z,-1.91
2022-11-18T23:12:47.470Z,-1.93
2022-11-18T23:15:15.744Z,-2.11
2022-11-18T23:17:43.604Z,-2.03
2022-11-18T23:20:12.439Z,-1.99
2022-11-18T23:22:41.666Z,-2.03
2022-11-18T23:25:09.560Z,-2.14
2022-11-18T23:27:37.397Z,-2.25
2022-11-18T23:30:06.302Z,-2.33
2022-11-18T23:32:34.300Z,-2.36
2022-11-18T23:35:02.061Z,-2.29
2022-11-18T23:37:29.983Z,-2.26
2022-11-18T23:39:59.067Z,-2.35
2022-11-18T23:42:26.934Z,-2.25
2022-11-18T23:44:56.061Z,-2.22
2022-11-18T23:47:25.580Z,-2.38
2022-11-18T23:49:53.477Z,-2.31
2022-11-18T23:52:21.409Z,-2.19
2022-11-18T23:54:51.963Z,-2.38
2022-11-18T23:57:21.558Z,-2.53
2022-11-18T23:59:49.450Z,-2.44
